sensor_id;sensor_type;location;lat;lon;timestamp;pressure;altitude;pressure_sealevel;temperature;humidity
62458;BME280;48509;52.122;5.250;2023-05-01T00:00:36;101830.0;;;10.63;92.19
62458;BME280;48509;52.122;5.250;2023-05-01T00:02:13;101827.0;;;10.6;92.34
62458;BME280;48509;52.122;5.250;2023-05-01T00:03:49;101827.0;;;10.61;92.08
62458;BME280;48509;52.122;5.250;2023-05-01T00:05:26;101823.0;;;10.63;91.87
62458;BME280;48509;52.122;5.250;2023-05-01T00:08:39;101818.0;;;10.58;92.18
62458;BME280;48509;52.122;5.250;2023-05-01T00:10:15;101816.0;;;10.54;92.25
62458;BME280;48509;52.122;5.250;2023-05-01T00:11:51;101815.0;;;10.49;92.79
62458;BME280;48509;52.122;5.250;2023-05-01T00:15:06;101816.0;;;10.56;92.49
62458;BME280;48509;52.122;5.250;2023-05-01T00:16:43;101811.0;;;10.5;92.16
62458;BME280;48509;52.122;5.250;2023-05-01T00:18:20;101806.0;;;10.43;92.38
62458;BME280;48509;52.122;5.250;2023-05-01T00:19:57;101807.0;;;10.52;92.3
62458;BME280;48509;52.122;5.250;2023-05-01T00:23:09;101798.0;;;10.58;91.38
62458;BME280;48509;52.122;5.250;2023-05-01T00:24:46;101795.0;;;10.38;92.92
62458;BME280;48509;52.122;5.250;2023-05-01T00:26:23;101792.0;;;10.37;92.83
62458;BME280;48509;52.122;5.250;2023-05-01T00:29:35;101789.0;;;10.42;92.03
62458;BME280;48509;52.122;5.250;2023-05-01T00:31:12;101788.0;;;10.43;92.25
62458;BME280;48509;52.122;5.250;2023-05-01T00:32:49;101788.0;;;10.35;92.73
62458;BME280;48509;52.122;5.250;2023-05-01T00:36:02;101786.0;;;10.27;93.23
62458;BME280;48509;52.122;5.250;2023-05-01T00:37:39;101780.0;;;10.3;93.13
62458;BME280;48509;52.122;5.250;2023-05-01T00:39:15;101780.0;;;10.24;93.7
62458;BME280;48509;52.122;5.250;2023-05-01T00:42:33;101773.0;;;10.19;93.81
62458;BME280;48509;52.122;5.250;2023-05-01T00:44:09;101775.0;;;10.1;93.79
62458;BME280;48509;52.122;5.250;2023-05-01T00:45:45;101770.0;;;10.23;93.71
62458;BME280;48509;52.122;5.250;2023-05-01T00:47:21;101768.0;;;10.14;93.74
62458;BME280;48509;52.122;5.250;2023-05-01T00:50:35;101760.0;;;10.21;93.37
62458;BME280;48509;52.122;5.250;2023-05-01T00:52:12;101759.0;;;10.15;93.47
62458;BME280;48509;52.122;5.250;2023-05-01T00:53:49;101758.0;;;10.06;94.04
62458;BME280;48509;52.122;5.250;2023-05-01T00:57:04;101756.0;;;10.06;93.9
62458;BME280;48509;52.122;5.250;2023-05-01T00:58:41;101750.0;;;10.14;93.34
62458;BME280;48509;52.122;5.250;2023-05-01T01:00:18;101752.0;;;10.23;93.16
62458;BME280;48509;52.122;5.250;2023-05-01T01:01:56;101747.0;;;10.18;92.89
62458;BME280;48509;52.122;5.250;2023-05-01T01:05:10;101743.0;;;10.14;93.05
62458;BME280;48509;52.122;5.250;2023-05-01T01:06:51;101741.0;;;10.21;92.58
62458;BME280;48509;52.122;5.250;2023-05-01T01:08:36;101737.0;;;10.07;93.16
62458;BME280;48509;52.122;5.250;2023-05-01T01:10:18;101732.0;;;10.11;92.94
62458;BME280;48509;52.122;5.250;2023-05-01T01:13:57;101724.0;;;9.97;94.67
62458;BME280;48509;52.122;5.250;2023-05-01T01:15:39;101725.0;;;10.02;93.37
62458;BME280;48509;52.122;5.250;2023-05-01T01:17:25;101722.0;;;9.98;93.61
62458;BME280;48509;52.122;5.250;2023-05-01T01:19:16;101720.0;;;9.97;93.33
62458;BME280;48509;52.122;5.250;2023-05-01T01:21:07;101722.0;;;10.01;93.3
62458;BME280;48509;52.122;5.250;2023-05-01T01:22:53;101713.0;;;9.94;93.37
62458;BME280;48509;52.122;5.250;2023-05-01T01:26:48;101707.0;;;9.81;94.39
62458;BME280;48509;52.122;5.250;2023-05-01T01:29:00;101708.0;;;9.85;93.94
62458;BME280;48509;52.122;5.250;2023-05-01T01:31:32;101705.0;;;9.91;93.42
62458;BME280;48509;52.122;5.250;2023-05-01T01:33:32;101700.0;;;10.02;92.88
62458;BME280;48509;52.122;5.250;2023-05-01T01:35:26;101695.0;;;9.85;94.14
62458;BME280;48509;52.122;5.250;2023-05-01T01:38:56;101691.0;;;9.84;94.06
62458;BME280;48509;52.122;5.250;2023-05-01T01:40:47;101691.0;;;9.78;94.18
62458;BME280;48509;52.122;5.250;2023-05-01T01:44:15;101686.0;;;9.92;93.38
62458;BME280;48509;52.122;5.250;2023-05-01T01:46:05;101680.0;;;9.73;94.45
62458;BME280;48509;52.122;5.250;2023-05-01T01:49:22;101681.0;;;9.65;95.34
62458;BME280;48509;52.122;5.250;2023-05-01T01:51:04;101676.0;;;9.69;94.9
62458;BME280;48509;52.122;5.250;2023-05-01T01:52:47;101674.0;;;9.82;93.95
62458;BME280;48509;52.122;5.250;2023-05-01T01:54:28;101666.0;;;9.75;94.19
62458;BME280;48509;52.122;5.250;2023-05-01T01:57:44;101672.0;;;9.73;94.55
62458;BME280;48509;52.122;5.250;2023-05-01T01:59:24;101666.0;;;9.71;94.54
62458;BME280;48509;52.122;5.250;2023-05-01T02:01:00;101668.0;;;9.69;94.6
62458;BME280;48509;52.122;5.250;2023-05-01T02:02:39;101663.0;;;9.86;93.53
62458;BME280;48509;52.122;5.250;2023-05-01T02:05:55;101659.0;;;9.85;94.42
62458;BME280;48509;52.122;5.250;2023-05-01T02:07:34;101655.0;;;9.76;94.58
62458;BME280;48509;52.122;5.250;2023-05-01T02:09:15;101653.0;;;9.8;94.19
62458;BME280;48509;52.122;5.250;2023-05-01T02:10:54;101648.0;;;9.76;94.17
62458;BME280;48509;52.122;5.250;2023-05-01T02:14:09;101648.0;;;9.89;94.0
62458;BME280;48509;52.122;5.250;2023-05-01T02:15:47;101645.0;;;9.93;93.97
62458;BME280;48509;52.122;5.250;2023-05-01T02:17:23;101645.0;;;9.9;94.07
62458;BME280;48509;52.122;5.250;2023-05-01T02:20:41;101639.0;;;9.84;94.19
62458;BME280;48509;52.122;5.250;2023-05-01T02:22:19;101640.0;;;9.88;93.96
62458;BME280;48509;52.122;5.250;2023-05-01T02:23:59;101636.0;;;9.92;93.78
62458;BME280;48509;52.122;5.250;2023-05-01T02:25:37;101634.0;;;9.93;93.93
62458;BME280;48509;52.122;5.250;2023-05-01T02:28:55;101632.0;;;9.99;92.91
62458;BME280;48509;52.122;5.250;2023-05-01T02:30:31;101628.0;;;9.83;93.71
62458;BME280;48509;52.122;5.250;2023-05-01T02:32:07;101630.0;;;9.81;94.18
62458;BME280;48509;52.122;5.250;2023-05-01T02:35:20;101623.0;;;9.82;94.58
62458;BME280;48509;52.122;5.250;2023-05-01T02:36:56;101617.0;;;9.89;94.48
62458;BME280;48509;52.122;5.250;2023-05-01T02:38:32;101620.0;;;9.82;94.97
62458;BME280;48509;52.122;5.250;2023-05-01T02:40:10;101620.0;;;9.91;94.72
62458;BME280;48509;52.122;5.250;2023-05-01T02:43:26;101614.0;;;9.85;94.83
62458;BME280;48509;52.122;5.250;2023-05-01T02:45:06;101612.0;;;9.93;94.22
62458;BME280;48509;52.122;5.250;2023-05-01T02:46:46;101611.0;;;10.01;94.11
62458;BME280;48509;52.122;5.250;2023-05-01T02:50:05;101603.0;;;9.96;94.37
62458;BME280;48509;52.122;5.250;2023-05-01T02:51:42;101606.0;;;9.94;94.91
62458;BME280;48509;52.122;5.250;2023-05-01T02:53:20;101605.0;;;9.98;94.42
62458;BME280;48509;52.122;5.250;2023-05-01T02:54:58;101600.0;;;10.07;93.68
62458;BME280;48509;52.122;5.250;2023-05-01T02:58:14;101594.0;;;10.02;94.07
62458;BME280;48509;52.122;5.250;2023-05-01T02:59:51;101591.0;;;9.98;94.91
62458;BME280;48509;52.122;5.250;2023-05-01T03:01:27;101591.0;;;9.93;95.57
62458;BME280;48509;52.122;5.250;2023-05-01T03:04:40;101590.0;;;10.06;94.68
62458;BME280;48509;52.122;5.250;2023-05-01T03:06:16;101590.0;;;10.06;94.39
62458;BME280;48509;52.122;5.250;2023-05-01T03:07:52;101589.0;;;10.05;94.57
62458;BME280;48509;52.122;5.250;2023-05-01T03:09:28;101589.0;;;10.08;94.38
62458;BME280;48509;52.122;5.250;2023-05-01T03:12:42;101581.0;;;10.26;93.65
62458;BME280;48509;52.122;5.250;2023-05-01T03:14:18;101582.0;;;10.11;95.53
62458;BME280;48509;52.122;5.250;2023-05-01T03:15:55;101581.0;;;10.1;95.32
62458;BME280;48509;52.122;5.250;2023-05-01T03:19:07;101576.0;;;10.15;95.82
62458;BME280;48509;52.122;5.250;2023-05-01T03:20:50;101573.0;;;10.14;95.08
62458;BME280;48509;52.122;5.250;2023-05-01T03:22:27;101574.0;;;10.3;95.21
62458;BME280;48509;52.122;5.250;2023-05-01T03:24:05;101565.0;;;10.23;94.64
62458;BME280;48509;52.122;5.250;2023-05-01T03:27:18;101567.0;;;10.22;96.06
62458;BME280;48509;52.122;5.250;2023-05-01T03:28:54;101567.0;;;10.23;95.1
62458;BME280;48509;52.122;5.250;2023-05-01T03:30:32;101568.0;;;10.33;94.42
62458;BME280;48509;52.122;5.250;2023-05-01T03:33:44;101573.0;;;10.32;94.44
62458;BME280;48509;52.122;5.250;2023-05-01T03:35:20;101564.0;;;10.27;94.38
62458;BME280;48509;52.122;5.250;2023-05-01T03:36:57;101562.0;;;10.28;94.88
62458;BME280;48509;52.122;5.250;2023-05-01T03:40:09;101557.0;;;10.3;94.96
62458;BME280;48509;52.122;5.250;2023-05-01T03:41:46;101555.0;;;10.28;95.36
62458;BME280;48509;52.122;5.250;2023-05-01T03:43:22;101550.0;;;10.47;94.59
62458;BME280;48509;52.122;5.250;2023-05-01T03:44:59;101547.0;;;10.34;94.0
62458;BME280;48509;52.122;5.250;2023-05-01T03:48:11;101544.0;;;10.44;93.22
62458;BME280;48509;52.122;5.250;2023-05-01T03:49:47;101542.0;;;10.49;93.29
62458;BME280;48509;52.122;5.250;2023-05-01T03:51:24;101536.0;;;10.64;92.18
62458;BME280;48509;52.122;5.250;2023-05-01T03:54:36;101535.0;;;10.71;92.34
62458;BME280;48509;52.122;5.250;2023-05-01T03:56:12;101537.0;;;10.8;92.09
62458;BME280;48509;52.122;5.250;2023-05-01T03:57:48;101535.0;;;10.82;92.04
62458;BME280;48509;52.122;5.250;2023-05-01T04:01:00;101533.0;;;10.67;92.53
62458;BME280;48509;52.122;5.250;2023-05-01T04:02:37;101532.0;;;10.77;91.46
62458;BME280;48509;52.122;5.250;2023-05-01T04:09:13;101527.0;;;10.75;92.42
62458;BME280;48509;52.122;5.250;2023-05-01T04:10:49;101525.0;;;10.63;93.78
62458;BME280;48509;52.122;5.250;2023-05-01T04:12:25;101527.0;;;10.65;93.67
62458;BME280;48509;52.122;5.250;2023-05-01T04:15:36;101528.0;;;10.74;93.11
62458;BME280;48509;52.122;5.250;2023-05-01T04:17:13;101532.0;;;10.76;92.53
62458;BME280;48509;52.122;5.250;2023-05-01T04:18:49;101531.0;;;10.62;93.16
62458;BME280;48509;52.122;5.250;2023-05-01T04:22:01;101531.0;;;10.48;93.99
62458;BME280;48509;52.122;5.250;2023-05-01T04:23:37;101535.0;;;10.48;94.04
62458;BME280;48509;52.122;5.250;2023-05-01T04:25:13;101527.0;;;10.56;92.88
62458;BME280;48509;52.122;5.250;2023-05-01T04:26:49;101531.0;;;10.53;93.81
62458;BME280;48509;52.122;5.250;2023-05-01T04:30:02;101530.0;;;10.68;92.9
62458;BME280;48509;52.122;5.250;2023-05-01T04:31:38;101526.0;;;10.59;93.83
62458;BME280;48509;52.122;5.250;2023-05-01T04:33:14;101525.0;;;10.54;94.18
62458;BME280;48509;52.122;5.250;2023-05-01T04:36:26;101520.0;;;10.49;95.21
62458;BME280;48509;52.122;5.250;2023-05-01T04:38:02;101521.0;;;10.74;92.98
62458;BME280;48509;52.122;5.250;2023-05-01T04:39:38;101519.0;;;10.7;92.24
62458;BME280;48509;52.122;5.250;2023-05-01T04:42:51;101524.0;;;10.74;91.8
62458;BME280;48509;52.122;5.250;2023-05-01T04:44:27;101526.0;;;10.68;93.72
62458;BME280;48509;52.122;5.250;2023-05-01T04:46:03;101523.0;;;10.66;94.17
62458;BME280;48509;52.122;5.250;2023-05-01T04:49:15;101530.0;;;10.92;92.1
62458;BME280;48509;52.122;5.250;2023-05-01T04:50:51;101530.0;;;10.96;91.85
62458;BME280;48509;52.122;5.250;2023-05-01T04:52:27;101534.0;;;10.83;91.36
62458;BME280;48509;52.122;5.250;2023-05-01T04:54:03;101530.0;;;10.8;90.53
62458;BME280;48509;52.122;5.250;2023-05-01T04:57:16;101530.0;;;10.89;89.58
62458;BME280;48509;52.122;5.250;2023-05-01T04:58:52;101523.0;;;11.08;87.88
62458;BME280;48509;52.122;5.250;2023-05-01T05:00:28;101524.0;;;11.04;89.28
62458;BME280;48509;52.122;5.250;2023-05-01T05:03:41;101523.0;;;11.18;88.03
62458;BME280;48509;52.122;5.250;2023-05-01T05:05:18;101518.0;;;11.22;86.73
62458;BME280;48509;52.122;5.250;2023-05-01T05:06:54;101522.0;;;11.44;85.27
62458;BME280;48509;52.122;5.250;2023-05-01T05:10:07;101526.0;;;11.4;84.91
62458;BME280;48509;52.122;5.250;2023-05-01T05:11:43;101520.0;;;11.18;88.73
62458;BME280;48509;52.122;5.250;2023-05-01T05:13:19;101523.0;;;11.1;89.94
62458;BME280;48509;52.122;5.250;2023-05-01T05:14:55;101523.0;;;11.13;90.17
62458;BME280;48509;52.122;5.250;2023-05-01T05:18:07;101522.0;;;11.19;89.75
62458;BME280;48509;52.122;5.250;2023-05-01T05:19:44;101521.0;;;11.32;88.05
62458;BME280;48509;52.122;5.250;2023-05-01T05:21:19;101525.0;;;11.16;89.56
62458;BME280;48509;52.122;5.250;2023-05-01T05:24:32;101521.0;;;11.35;88.49
62458;BME280;48509;52.122;5.250;2023-05-01T05:26:08;101524.0;;;11.29;87.68
62458;BME280;48509;52.122;5.250;2023-05-01T05:27:44;101520.0;;;11.26;88.75
62458;BME280;48509;52.122;5.250;2023-05-01T05:30:56;101519.0;;;11.54;85.64
62458;BME280;48509;52.122;5.250;2023-05-01T05:32:32;101523.0;;;11.6;84.19
62458;BME280;48509;52.122;5.250;2023-05-01T05:34:08;101523.0;;;11.65;84.25
62458;BME280;48509;52.122;5.250;2023-05-01T05:37:21;101524.0;;;11.83;83.27
62458;BME280;48509;52.122;5.250;2023-05-01T05:38:58;101517.0;;;11.82;84.3
62458;BME280;48509;52.122;5.250;2023-05-01T05:40:34;101519.0;;;11.86;82.22
62458;BME280;48509;52.122;5.250;2023-05-01T05:42:10;101520.0;;;11.73;82.92
62458;BME280;48509;52.122;5.250;2023-05-01T05:45:22;101514.0;;;11.71;83.04
62458;BME280;48509;52.122;5.250;2023-05-01T05:46:58;101509.0;;;11.67;83.4
62458;BME280;48509;52.122;5.250;2023-05-01T05:48:34;101512.0;;;11.74;84.6
62458;BME280;48509;52.122;5.250;2023-05-01T05:53:23;101509.0;;;11.86;83.24
62458;BME280;48509;52.122;5.250;2023-05-01T05:55:00;101508.0;;;11.82;83.54
62458;BME280;48509;52.122;5.250;2023-05-01T05:58:12;101501.0;;;11.99;82.85
62458;BME280;48509;52.122;5.250;2023-05-01T05:59:49;101501.0;;;11.88;84.15
62458;BME280;48509;52.122;5.250;2023-05-01T06:01:25;101505.0;;;11.89;85.31
62458;BME280;48509;52.122;5.250;2023-05-01T06:03:02;101502.0;;;12.0;83.93
62458;BME280;48509;52.122;5.250;2023-05-01T06:06:14;101505.0;;;11.93;83.43
62458;BME280;48509;52.122;5.250;2023-05-01T06:07:51;101499.0;;;11.95;83.87
62458;BME280;48509;52.122;5.250;2023-05-01T06:09:27;101498.0;;;12.1;84.24
62458;BME280;48509;52.122;5.250;2023-05-01T06:12:39;101500.0;;;12.31;83.14
62458;BME280;48509;52.122;5.250;2023-05-01T06:14:15;101503.0;;;12.23;82.4
62458;BME280;48509;52.122;5.250;2023-05-01T06:15:51;101507.0;;;12.36;82.02
62458;BME280;48509;52.122;5.250;2023-05-01T06:19:03;101505.0;;;12.42;83.81
62458;BME280;48509;52.122;5.250;2023-05-01T06:20:39;101500.0;;;12.46;83.07
62458;BME280;48509;52.122;5.250;2023-05-01T06:22:15;101496.0;;;12.64;82.62
62458;BME280;48509;52.122;5.250;2023-05-01T06:25:27;101494.0;;;12.71;83.2
62458;BME280;48509;52.122;5.250;2023-05-01T06:27:04;101500.0;;;12.82;81.47
62458;BME280;48509;52.122;5.250;2023-05-01T06:28:40;101500.0;;;12.92;80.67
62458;BME280;48509;52.122;5.250;2023-05-01T06:30:16;101500.0;;;13.0;80.81
62458;BME280;48509;52.122;5.250;2023-05-01T06:33:28;101502.0;;;13.05;78.45
62458;BME280;48509;52.122;5.250;2023-05-01T06:35:05;101500.0;;;13.07;77.16
62458;BME280;48509;52.122;5.250;2023-05-01T06:36:41;101498.0;;;13.08;78.11
62458;BME280;48509;52.122;5.250;2023-05-01T06:39:54;101493.0;;;13.21;76.83
62458;BME280;48509;52.122;5.250;2023-05-01T06:41:30;101491.0;;;13.38;75.8
62458;BME280;48509;52.122;5.250;2023-05-01T06:43:06;101491.0;;;13.41;73.78
62458;BME280;48509;52.122;5.250;2023-05-01T06:46:18;101487.0;;;13.4;71.83
62458;BME280;48509;52.122;5.250;2023-05-01T06:47:54;101489.0;;;13.43;70.45
62458;BME280;48509;52.122;5.250;2023-05-01T06:49:30;101488.0;;;13.38;76.98
62458;BME280;48509;52.122;5.250;2023-05-01T06:52:42;101488.0;;;13.34;73.59
62458;BME280;48509;52.122;5.250;2023-05-01T06:54:19;101485.0;;;13.35;74.17
62458;BME280;48509;52.122;5.250;2023-05-01T06:55:55;101485.0;;;13.32;75.17
62458;BME280;48509;52.122;5.250;2023-05-01T07:00:44;101483.0;;;13.44;72.69
62458;BME280;48509;52.122;5.250;2023-05-01T07:02:20;101487.0;;;13.35;75.58
62458;BME280;48509;52.122;5.250;2023-05-01T07:03:56;101483.0;;;13.38;77.27
62458;BME280;48509;52.122;5.250;2023-05-01T07:07:09;101488.0;;;13.58;72.61
62458;BME280;48509;52.122;5.250;2023-05-01T07:08:45;101489.0;;;13.66;71.66
62458;BME280;48509;52.122;5.250;2023-05-01T07:10:21;101488.0;;;13.66;70.31
62458;BME280;48509;52.122;5.250;2023-05-01T07:13:33;101486.0;;;13.81;71.06
62458;BME280;48509;52.122;5.250;2023-05-01T07:15:09;101487.0;;;13.47;71.86
62458;BME280;48509;52.122;5.250;2023-05-01T07:16:45;101489.0;;;13.45;71.08
62458;BME280;48509;52.122;5.250;2023-05-01T07:18:21;101486.0;;;13.62;68.58
62458;BME280;48509;52.122;5.250;2023-05-01T07:21:34;101486.0;;;13.7;72.3
62458;BME280;48509;52.122;5.250;2023-05-01T07:23:10;101483.0;;;13.53;73.03
62458;BME280;48509;52.122;5.250;2023-05-01T07:24:46;101484.0;;;13.63;73.83
62458;BME280;48509;52.122;5.250;2023-05-01T07:28:01;101487.0;;;13.61;74.63
62458;BME280;48509;52.122;5.250;2023-05-01T07:29:37;101485.0;;;13.61;72.16
62458;BME280;48509;52.122;5.250;2023-05-01T07:31:13;101487.0;;;13.52;72.05
62458;BME280;48509;52.122;5.250;2023-05-01T07:34:26;101488.0;;;13.76;73.97
62458;BME280;48509;52.122;5.250;2023-05-01T07:36:02;101494.0;;;13.76;71.88
62458;BME280;48509;52.122;5.250;2023-05-01T07:37:39;101494.0;;;13.68;71.67
62458;BME280;48509;52.122;5.250;2023-05-01T07:39:15;101496.0;;;13.79;72.84
62458;BME280;48509;52.122;5.250;2023-05-01T07:42:28;101494.0;;;13.77;71.94
62458;BME280;48509;52.122;5.250;2023-05-01T07:44:04;101493.0;;;13.65;71.37
62458;BME280;48509;52.122;5.250;2023-05-01T07:45:40;101498.0;;;13.77;70.27
62458;BME280;48509;52.122;5.250;2023-05-01T07:48:52;101492.0;;;13.83;71.16
62458;BME280;48509;52.122;5.250;2023-05-01T07:50:28;101493.0;;;13.84;70.02
62458;BME280;48509;52.122;5.250;2023-05-01T07:52:05;101494.0;;;14.01;72.11
62458;BME280;48509;52.122;5.250;2023-05-01T07:55:20;101494.0;;;14.09;67.94
62458;BME280;48509;52.122;5.250;2023-05-01T07:56:56;101490.0;;;14.05;68.13
62458;BME280;48509;52.122;5.250;2023-05-01T07:58:34;101487.0;;;14.07;72.09
62458;BME280;48509;52.122;5.250;2023-05-01T08:00:11;101489.0;;;14.17;69.58
62458;BME280;48509;52.122;5.250;2023-05-01T08:03:23;101483.0;;;14.25;71.47
62458;BME280;48509;52.122;5.250;2023-05-01T08:04:59;101486.0;;;14.23;70.59
62458;BME280;48509;52.122;5.250;2023-05-01T08:06:35;101489.0;;;14.19;70.61
62458;BME280;48509;52.122;5.250;2023-05-01T08:09:48;101489.0;;;14.29;68.8
62458;BME280;48509;52.122;5.250;2023-05-01T08:11:24;101487.0;;;14.3;70.45
62458;BME280;48509;52.122;5.250;2023-05-01T08:13:01;101492.0;;;14.37;66.72
62458;BME280;48509;52.122;5.250;2023-05-01T08:16:13;101490.0;;;14.46;67.11
62458;BME280;48509;52.122;5.250;2023-05-01T08:17:49;101490.0;;;14.66;67.49
62458;BME280;48509;52.122;5.250;2023-05-01T08:19:25;101492.0;;;14.67;65.72
62458;BME280;48509;52.122;5.250;2023-05-01T08:22:37;101490.0;;;14.71;68.16
62458;BME280;48509;52.122;5.250;2023-05-01T08:24:14;101489.0;;;14.59;68.27
62458;BME280;48509;52.122;5.250;2023-05-01T08:25:50;101491.0;;;14.54;69.02
62458;BME280;48509;52.122;5.250;2023-05-01T08:27:27;101487.0;;;14.58;67.31
62458;BME280;48509;52.122;5.250;2023-05-01T08:30:39;101488.0;;;14.55;66.97
62458;BME280;48509;52.122;5.250;2023-05-01T08:32:16;101486.0;;;14.6;67.69
62458;BME280;48509;52.122;5.250;2023-05-01T08:33:53;101488.0;;;14.56;68.73
62458;BME280;48509;52.122;5.250;2023-05-01T08:37:06;101491.0;;;14.48;67.87
62458;BME280;48509;52.122;5.250;2023-05-01T08:38:42;101490.0;;;14.56;69.62
62458;BME280;48509;52.122;5.250;2023-05-01T08:40:18;101490.0;;;14.55;68.69
62458;BME280;48509;52.122;5.250;2023-05-01T08:43:30;101496.0;;;14.71;68.58
62458;BME280;48509;52.122;5.250;2023-05-01T08:45:08;101495.0;;;14.72;68.95
62458;BME280;48509;52.122;5.250;2023-05-01T08:46:46;101497.0;;;14.71;70.75
62458;BME280;48509;52.122;5.250;2023-05-01T08:48:24;101494.0;;;14.86;71.42
62458;BME280;48509;52.122;5.250;2023-05-01T08:51:40;101493.0;;;15.0;66.75
62458;BME280;48509;52.122;5.250;2023-05-01T08:53:18;101491.0;;;15.17;66.0
62458;BME280;48509;52.122;5.250;2023-05-01T08:54:58;101490.0;;;15.22;64.72
62458;BME280;48509;52.122;5.250;2023-05-01T08:58:14;101491.0;;;15.4;63.16
62458;BME280;48509;52.122;5.250;2023-05-01T08:59:54;101488.0;;;15.26;63.6
62458;BME280;48509;52.122;5.250;2023-05-01T09:01:32;101491.0;;;15.3;64.14
62458;BME280;48509;52.122;5.250;2023-05-01T09:03:10;101488.0;;;15.41;64.86
62458;BME280;48509;52.122;5.250;2023-05-01T09:06:27;101491.0;;;15.42;67.02
62458;BME280;48509;52.122;5.250;2023-05-01T09:09:41;101494.0;;;15.66;64.77
62458;BME280;48509;52.122;5.250;2023-05-01T09:11:19;101498.0;;;15.81;64.59
62458;BME280;48509;52.122;5.250;2023-05-01T09:14:36;101497.0;;;15.74;66.0
62458;BME280;48509;52.122;5.250;2023-05-01T09:16:13;101496.0;;;15.88;67.14
62458;BME280;48509;52.122;5.250;2023-05-01T09:17:50;101497.0;;;15.95;63.62
62458;BME280;48509;52.122;5.250;2023-05-01T09:21:02;101496.0;;;16.15;64.58
62458;BME280;48509;52.122;5.250;2023-05-01T09:22:39;101499.0;;;16.37;63.06
62458;BME280;48509;52.122;5.250;2023-05-01T09:24:16;101495.0;;;16.5;60.86
62458;BME280;48509;52.122;5.250;2023-05-01T09:27:32;101497.0;;;16.68;61.57
62458;BME280;48509;52.122;5.250;2023-05-01T09:29:09;101493.0;;;16.52;59.63
62458;BME280;48509;52.122;5.250;2023-05-01T09:30:45;101500.0;;;16.36;60.98
62458;BME280;48509;52.122;5.250;2023-05-01T09:35:54;101501.0;;;16.56;62.76
62458;BME280;48509;52.122;5.250;2023-05-01T09:37:33;101499.0;;;16.86;57.95
62458;BME280;48509;52.122;5.250;2023-05-01T09:39:21;101500.0;;;16.73;57.11
62458;BME280;48509;52.122;5.250;2023-05-01T09:41:03;101497.0;;;16.68;60.94
62458;BME280;48509;52.122;5.250;2023-05-01T09:42:48;101496.0;;;16.68;60.37
62458;BME280;48509;52.122;5.250;2023-05-01T09:46:02;101498.0;;;16.65;62.58
62458;BME280;48509;52.122;5.250;2023-05-01T09:47:39;101501.0;;;16.64;59.35
62458;BME280;48509;52.122;5.250;2023-05-01T09:49:16;101500.0;;;16.96;61.9
62458;BME280;48509;52.122;5.250;2023-05-01T09:52:29;101497.0;;;16.89;53.49
62458;BME280;48509;52.122;5.250;2023-05-01T09:54:16;101496.0;;;16.95;60.18
62458;BME280;48509;52.122;5.250;2023-05-01T09:55:59;101498.0;;;17.0;57.31
62458;BME280;48509;52.122;5.250;2023-05-01T09:57:35;101502.0;;;17.16;56.28
62458;BME280;48509;52.122;5.250;2023-05-01T10:02:29;101503.0;;;17.29;53.37
62458;BME280;48509;52.122;5.250;2023-05-01T10:04:05;101498.0;;;17.5;54.28
62458;BME280;48509;52.122;5.250;2023-05-01T10:05:42;101501.0;;;17.45;56.09
62458;BME280;48509;52.122;5.250;2023-05-01T10:08:55;101501.0;;;17.38;54.26
62458;BME280;48509;52.122;5.250;2023-05-01T10:10:31;101500.0;;;17.31;53.71
62458;BME280;48509;52.122;5.250;2023-05-01T10:12:07;101499.0;;;17.34;52.65
62458;BME280;48509;52.122;5.250;2023-05-01T10:15:20;101498.0;;;17.53;53.46
62458;BME280;48509;52.122;5.250;2023-05-01T10:16:56;101505.0;;;17.63;50.86
62458;BME280;48509;52.122;5.250;2023-05-01T10:18:32;101509.0;;;17.66;49.18
62458;BME280;48509;52.122;5.250;2023-05-01T10:21:47;101511.0;;;17.7;48.77
62458;BME280;48509;52.122;5.250;2023-05-01T10:23:24;101511.0;;;17.75;48.37
62458;BME280;48509;52.122;5.250;2023-05-01T10:25:00;101514.0;;;17.91;50.4
62458;BME280;48509;52.122;5.250;2023-05-01T10:26:42;101515.0;;;17.77;51.06
62458;BME280;48509;52.122;5.250;2023-05-01T10:29:56;101523.0;;;17.81;48.42
62458;BME280;48509;52.122;5.250;2023-05-01T10:31:32;101525.0;;;17.86;49.34
62458;BME280;48509;52.122;5.250;2023-05-01T10:33:11;101525.0;;;17.84;48.8
62458;BME280;48509;52.122;5.250;2023-05-01T10:36:36;101526.0;;;17.89;47.32
62458;BME280;48509;52.122;5.250;2023-05-01T10:38:21;101525.0;;;17.81;51.12
62458;BME280;48509;52.122;5.250;2023-05-01T10:39:58;101526.0;;;17.84;49.84
62458;BME280;48509;52.122;5.250;2023-05-01T10:42:07;101527.0;;;17.75;52.81
62458;BME280;48509;52.122;5.250;2023-05-01T10:43:44;101527.0;;;17.84;50.79
62458;BME280;48509;52.122;5.250;2023-05-01T10:48:09;101525.0;;;17.86;51.26
62458;BME280;48509;52.122;5.250;2023-05-01T10:50:02;101533.0;;;17.96;53.98
62458;BME280;48509;52.122;5.250;2023-05-01T10:53:34;101534.0;;;17.93;53.65
62458;BME280;48509;52.122;5.250;2023-05-01T10:55:31;101535.0;;;17.89;54.59
62458;BME280;48509;52.122;5.250;2023-05-01T10:57:40;101534.0;;;17.84;55.91
62458;BME280;48509;52.122;5.250;2023-05-01T10:59:17;101537.0;;;17.81;57.34
62458;BME280;48509;52.122;5.250;2023-05-01T11:01:26;101534.0;;;17.7;59.63
62458;BME280;48509;52.122;5.250;2023-05-01T11:03:36;101539.0;;;17.68;57.23
62458;BME280;48509;52.122;5.250;2023-05-01T11:05:12;101537.0;;;17.54;57.95
62458;BME280;48509;52.122;5.250;2023-05-01T11:07:13;101540.0;;;17.43;58.97
62458;BME280;48509;52.122;5.250;2023-05-01T11:08:50;101535.0;;;17.2;58.7
62458;BME280;48509;52.122;5.250;2023-05-01T11:12:02;101536.0;;;17.25;58.88
62458;BME280;48509;52.122;5.250;2023-05-01T11:13:55;101536.0;;;17.29;59.31
62458;BME280;48509;52.122;5.250;2023-05-01T11:15:32;101536.0;;;17.46;60.13
62458;BME280;48509;52.122;5.250;2023-05-01T11:17:09;101537.0;;;17.52;57.21
62458;BME280;48509;52.122;5.250;2023-05-01T11:20:53;101543.0;;;17.52;57.64
62458;BME280;48509;52.122;5.250;2023-05-01T11:22:30;101534.0;;;17.14;58.02
62458;BME280;48509;52.122;5.250;2023-05-01T11:24:07;101534.0;;;17.25;58.83
62458;BME280;48509;52.122;5.250;2023-05-01T11:25:46;101533.0;;;17.36;60.23